createdAt,value
2017-10-19T00:00:30.631Z,0
2017-10-19T00:01:40.597Z,0
2017-10-19T00:02:50.945Z,0
2017-10-19T00:04:01.304Z,0
2017-10-19T00:05:10.228Z,0
2017-10-19T00:06:19.162Z,0
2017-10-19T00:07:28.104Z,0
2017-10-19T00:08:38.424Z,0
2017-10-19T00:09:48.764Z,0
2017-10-19T00:10:57.696Z,0
2017-10-19T00:12:06.608Z,0
2017-10-19T00:13:16.918Z,0
2017-10-19T00:14:27.248Z,0
2017-10-19T00:15:36.543Z,0
2017-10-19T00:16:45.797Z,0
2017-10-19T00:17:54.742Z,0
2017-10-19T00:19:06.356Z,0
2017-10-19T00:20:15.268Z,0
2017-10-19T00:21:56.957Z,0
2017-10-19T00:23:07.129Z,0
2017-10-19T00:24:17.910Z,0
2017-10-19T00:25:26.838Z,0
2017-10-19T00:26:36.214Z,0
2017-10-19T00:27:46.150Z,0
2017-10-19T00:28:56.800Z,0
2017-10-19T00:30:05.841Z,0
2017-10-19T00:31:15.368Z,0
2017-10-19T00:32:26.088Z,0
2017-10-19T00:33:36.052Z,0
2017-10-19T00:34:46.875Z,0
2017-10-19T00:35:56.126Z,0
2017-10-19T00:37:06.364Z,0
2017-10-19T00:38:17.031Z,0
2017-10-19T00:39:45.182Z,0
2017-10-19T00:40:55.524Z,0
2017-10-19T00:42:06.300Z,0
2017-10-19T00:43:16.612Z,0
2017-10-19T00:44:26.930Z,0
2017-10-19T00:45:35.965Z,0
2017-10-19T00:46:45.984Z,0
2017-10-19T00:47:56.681Z,0
2017-10-19T00:49:06.041Z,0
2017-10-19T00:50:16.479Z,0
2017-10-19T00:51:26.233Z,0
2017-10-19T00:52:35.154Z,0
2017-10-19T00:53:44.622Z,0
2017-10-19T00:54:53.573Z,0
2017-10-19T00:56:03.254Z,0
2017-10-19T00:57:13.652Z,0
2017-10-19T00:58:23.366Z,0
2017-10-19T00:59:34.295Z,0
2017-10-19T01:00:43.689Z,0
2017-10-19T01:01:52.642Z,0
2017-10-19T01:03:01.936Z,0
2017-10-19T01:04:12.611Z,0
2017-10-19T01:05:21.882Z,0
2017-10-19T01:06:32.544Z,0
2017-10-19T01:07:43.233Z,0
2017-10-19T01:08:53.933Z,0
2017-10-19T01:10:03.203Z,0
2017-10-19T01:11:13.622Z,0
2017-10-19T01:12:22.593Z,0
2017-10-19T01:13:31.522Z,0
2017-10-19T01:14:41.842Z,0
2017-10-19T01:15:52.159Z,0
2017-10-19T01:17:02.822Z,0
2017-10-19T01:18:12.423Z,0
2017-10-19T01:19:22.740Z,0
2017-10-19T01:20:32.102Z,0
2017-10-19T01:21:42.409Z,0
2017-10-19T01:22:52.664Z,0
2017-10-19T01:24:01.987Z,0
2017-10-19T01:25:10.912Z,0
2017-10-19T01:26:21.134Z,0
2017-10-19T01:27:30.085Z,0
2017-10-19T01:28:43.146Z,0
2017-10-19T01:29:53.469Z,0
2017-10-19T01:31:03.044Z,0
2017-10-19T01:32:11.972Z,0
2017-10-19T01:33:20.904Z,0
2017-10-19T01:34:29.835Z,0
2017-10-19T01:35:40.207Z,0
2017-10-19T01:36:49.551Z,0
2017-10-19T01:38:00.035Z,0
2017-10-19T01:39:08.958Z,0
2017-10-19T01:40:19.268Z,0
2017-10-19T01:41:28.534Z,0
2017-10-19T01:42:38.866Z,0
2017-10-19T01:43:49.839Z,0
2017-10-19T01:45:00.812Z,0
2017-10-19T01:46:11.145Z,0
2017-10-19T01:47:21.478Z,0
2017-10-19T01:48:32.142Z,0
2017-10-19T01:50:14.763Z,0
2017-10-19T01:51:23.746Z,0
2017-10-19T01:52:34.725Z,0
2017-10-19T01:53:43.638Z,0
2017-10-19T01:54:52.920Z,0
2017-10-19T01:56:03.232Z,0
2017-10-19T01:57:13.930Z,0
2017-10-19T01:58:23.161Z,0
2017-10-19T01:59:32.216Z,0
2017-10-19T02:00:42.151Z,0
2017-10-19T02:01:51.064Z,0
2017-10-19T02:02:59.994Z,0
2017-10-19T02:04:10.345Z,0
2017-10-19T02:05:19.579Z,0
2017-10-19T02:06:29.917Z,0
2017-10-19T02:07:41.651Z,0
2017-10-19T02:08:51.969Z,0
2017-10-19T02:10:02.637Z,0
2017-10-19T02:11:11.626Z,0
2017-10-19T02:12:21.841Z,0
2017-10-19T02:13:32.574Z,0
2017-10-19T02:14:43.231Z,0
2017-10-19T02:15:53.540Z,0
2017-10-19T02:17:02.758Z,0
2017-10-19T02:18:11.703Z,0
2017-10-19T02:19:21.028Z,0
2017-10-19T02:20:31.238Z,0
2017-10-19T02:21:40.332Z,0
2017-10-19T02:22:50.982Z,0
2017-10-19T02:24:01.287Z,0
2017-10-19T02:25:10.196Z,0
2017-10-19T02:26:20.834Z,0
2017-10-19T02:27:30.224Z,0
2017-10-19T02:28:39.481Z,0
2017-10-19T02:29:48.840Z,0
2017-10-19T02:30:58.500Z,0
2017-10-19T02:32:07.473Z,0
2017-10-19T02:33:17.709Z,0
2017-10-19T02:34:28.139Z,0
2017-10-19T02:35:37.375Z,0
2017-10-19T02:36:47.798Z,0
2017-10-19T02:37:58.107Z,0
2017-10-19T02:39:08.775Z,0
2017-10-19T02:40:18.026Z,0
2017-10-19T02:41:26.971Z,0
2017-10-19T02:42:36.221Z,0
2017-10-19T02:43:45.475Z,0
2017-10-19T02:44:54.446Z,0
2017-10-19T02:46:03.679Z,0
2017-10-19T02:47:12.590Z,0
2017-10-19T02:48:21.511Z,0
2017-10-19T02:49:30.473Z,0
2017-10-19T02:50:39.820Z,0
2017-10-19T02:51:50.013Z,0
2017-10-19T02:52:58.908Z,0
2017-10-19T02:54:09.578Z,0
2017-10-19T02:55:52.018Z,0
2017-10-19T02:57:01.288Z,0
2017-10-19T02:58:10.531Z,0
2017-10-19T02:59:21.171Z,0
2017-10-19T03:00:30.117Z,0
2017-10-19T03:01:40.438Z,0
2017-10-19T03:02:49.368Z,0
2017-10-19T03:04:00.023Z,0
2017-10-19T03:05:09.702Z,0
2017-10-19T03:06:20.050Z,0
2017-10-19T03:07:30.999Z,0
2017-10-19T03:08:42.965Z,0
2017-10-19T03:09:52.304Z,0
2017-10-19T03:11:01.549Z,0
2017-10-19T03:12:10.823Z,0
2017-10-19T03:13:21.138Z,0
2017-10-19T03:14:32.745Z,0
2017-10-19T03:15:44.698Z,0
2017-10-19T03:16:55.059Z,0
2017-10-19T03:18:04.412Z,0
2017-10-19T03:19:13.654Z,0
2017-10-19T03:20:24.339Z,0
2017-10-19T03:21:34.701Z,0
2017-10-19T03:22:46.583Z,0
2017-10-19T03:23:56.907Z,0
2017-10-19T03:25:05.829Z,0
2017-10-19T03:26:16.192Z,0
2017-10-19T03:27:26.491Z,0
2017-10-19T03:28:35.405Z,0
2017-10-19T03:29:44.721Z,0
2017-10-19T03:30:53.649Z,0
2017-10-19T03:32:05.595Z,0
2017-10-19T03:33:16.158Z,0
2017-10-19T03:34:26.799Z,0
2017-10-19T03:35:38.780Z,0
2017-10-19T03:36:47.696Z,0
2017-10-19T03:37:59.325Z,0
2017-10-19T03:39:08.657Z,0
2017-10-19T03:40:19.349Z,0
2017-10-19T03:41:28.594Z,0
2017-10-19T03:42:38.951Z,0
2017-10-19T03:43:49.176Z,0
2017-10-19T03:44:59.402Z,0
2017-10-19T03:46:08.317Z,0
2017-10-19T03:47:17.260Z,0
2017-10-19T03:48:29.215Z,0
2017-10-19T03:49:39.519Z,0
2017-10-19T03:50:51.137Z,0
2017-10-19T03:52:01.449Z,0
2017-10-19T03:53:10.723Z,0
2017-10-19T03:54:21.376Z,0
2017-10-19T03:55:32.990Z,0
2017-10-19T03:56:41.922Z,0
2017-10-19T03:57:50.926Z,0
2017-10-19T03:59:01.243Z,0
2017-10-19T04:00:10.839Z,0
2017-10-19T04:01:21.159Z,0
2017-10-19T04:02:31.206Z,0
2017-10-19T04:03:41.865Z,0
2017-10-19T04:04:53.480Z,0
2017-10-19T04:06:02.655Z,0
2017-10-19T04:07:12.380Z,0
2017-10-19T04:08:21.312Z,0
2017-10-19T04:09:30.560Z,0
2017-10-19T04:10:39.473Z,0
2017-10-19T04:11:48.428Z,0
2017-10-19T04:12:58.756Z,0
2017-10-19T04:14:08.125Z,0
2017-10-19T04:15:17.061Z,0
2017-10-19T04:16:26.092Z,0
2017-10-19T04:17:35.354Z,0
2017-10-19T04:18:44.622Z,0
2017-10-19T04:19:56.935Z,0
2017-10-19T04:21:07.154Z,0
2017-10-19T04:22:17.457Z,0
2017-10-19T04:23:26.788Z,0
2017-10-19T04:24:37.097Z,0
2017-10-19T04:25:46.033Z,0
2017-10-19T04:26:55.724Z,0
2017-10-19T04:28:04.962Z,0
2017-10-19T04:29:14.435Z,0
2017-10-19T04:30:23.726Z,0
2017-10-19T04:31:32.708Z,0
2017-10-19T04:32:41.622Z,0
2017-10-19T04:33:50.880Z,0
2017-10-19T04:35:01.214Z,0
2017-10-19T04:36:14.171Z,0
2017-10-19T04:37:24.596Z,0
2017-10-19T04:38:35.887Z,0
2017-10-19T04:39:46.250Z,0
2017-10-19T04:40:55.601Z,0
2017-10-19T04:42:04.581Z,0
2017-10-19T04:43:13.531Z,0
2017-10-19T04:44:22.535Z,0
2017-10-19T04:45:31.436Z,0
2017-10-19T04:46:40.354Z,0
2017-10-19T04:47:49.295Z,0
2017-10-19T04:48:58.998Z,0
2017-10-19T04:50:09.689Z,0
2017-10-19T04:51:20.476Z,0
2017-10-19T04:52:32.472Z,0
2017-10-19T04:53:43.127Z,0
2017-10-19T04:54:53.433Z,0
2017-10-19T04:56:02.678Z,0
2017-10-19T04:57:13.006Z,0
2017-10-19T04:58:23.998Z,0
2017-10-19T04:59:34.699Z,0
2017-10-19T05:00:47.638Z,0
2017-10-19T05:01:58.535Z,0
2017-10-19T05:03:07.800Z,0
2017-10-19T05:04:18.483Z,0
2017-10-19T05:05:27.725Z,0
2017-10-19T05:06:36.663Z,0
2017-10-19T05:08:18.060Z,0
2017-10-19T05:09:28.733Z,0
2017-10-19T05:10:38.993Z,0
2017-10-19T05:11:48.266Z,0
2017-10-19T05:12:57.524Z,0
2017-10-19T05:14:06.440Z,0
2017-10-19T05:15:18.423Z,0
2017-10-19T05:16:29.060Z,0
2017-10-19T05:17:39.392Z,0
2017-10-19T05:18:49.708Z,0
2017-10-19T05:19:59.308Z,0
2017-10-19T05:21:08.223Z,0
2017-10-19T05:22:17.150Z,0
2017-10-19T05:23:26.076Z,0
2017-10-19T05:24:36.931Z,0
2017-10-19T05:25:45.850Z,0
2017-10-19T05:26:55.116Z,0
2017-10-19T05:28:04.043Z,0
2017-10-19T05:29:12.953Z,0
2017-10-19T05:30:22.172Z,0
2017-10-19T05:31:31.097Z,0
2017-10-19T05:32:41.416Z,0
2017-10-19T05:33:51.970Z,0
2017-10-19T05:35:02.636Z,0
2017-10-19T05:36:12.939Z,0
2017-10-19T05:37:23.253Z,0
2017-10-19T05:38:32.521Z,0
2017-10-19T05:39:43.195Z,0
2017-10-19T05:40:52.154Z,0
2017-10-19T05:42:02.793Z,5
2017-10-19T05:43:11.760Z,5
2017-10-19T05:44:21.151Z,5
2017-10-19T05:45:31.130Z,5
2017-10-19T05:46:40.380Z,5
2017-10-19T05:47:49.298Z,5
2017-10-19T05:48:58.739Z,5
2017-10-19T05:50:09.049Z,5
2017-10-19T05:51:21.015Z,10
2017-10-19T05:52:30.348Z,10
2017-10-19T05:53:41.035Z,10
2017-10-19T05:54:50.849Z,10
2017-10-19T05:55:59.770Z,10
2017-10-19T05:57:10.072Z,10
2017-10-19T05:58:20.450Z,15
2017-10-19T05:59:30.913Z,15
2017-10-19T06:00:41.272Z,15
2017-10-19T06:01:50.183Z,15
2017-10-19T06:02:59.441Z,20
2017-10-19T06:04:08.396Z,20
2017-10-19T06:05:18.830Z,20
2017-10-19T06:06:29.174Z,20
2017-10-19T06:07:39.743Z,20
2017-10-19T06:08:50.392Z,25
2017-10-19T06:10:00.816Z,25
2017-10-19T06:11:11.030Z,30
2017-10-19T06:12:19.996Z,30
2017-10-19T06:13:29.247Z,30
2017-10-19T06:14:39.843Z,30
2017-10-19T06:15:50.065Z,30
2017-10-19T06:16:58.982Z,35
2017-10-19T06:18:08.261Z,35
2017-10-19T06:19:19.936Z,35
2017-10-19T06:20:30.741Z,40
2017-10-19T06:21:41.096Z,40
2017-10-19T06:22:50.419Z,45
2017-10-19T06:23:59.327Z,45
2017-10-19T06:25:08.622Z,45
2017-10-19T06:26:17.561Z,45
2017-10-19T06:27:29.110Z,50
2017-10-19T06:28:38.462Z,50
2017-10-19T06:29:49.494Z,50
2017-10-19T06:31:01.558Z,55
2017-10-19T06:32:11.902Z,55
2017-10-19T06:33:22.294Z,55
2017-10-19T06:34:32.528Z,55
2017-10-19T06:35:42.936Z,55
2017-10-19T06:36:52.626Z,55
2017-10-19T06:38:03.018Z,60
2017-10-19T06:39:11.944Z,55
2017-10-19T06:40:22.681Z,60
2017-10-19T06:41:32.908Z,60
2017-10-19T06:42:41.829Z,60
2017-10-19T06:43:53.521Z,60
2017-10-19T06:45:02.957Z,65
2017-10-19T06:46:14.605Z,70
2017-10-19T06:47:23.559Z,65
2017-10-19T06:48:33.911Z,60
2017-10-19T06:49:44.323Z,65
2017-10-19T06:50:55.197Z,70
2017-10-19T06:52:05.859Z,75
2017-10-19T06:53:14.866Z,80
2017-10-19T06:54:23.805Z,80
2017-10-19T06:55:34.042Z,80
2017-10-19T06:56:43.394Z,85
2017-10-19T06:57:53.100Z,90
2017-10-19T06:59:02.012Z,90
2017-10-19T07:00:12.353Z,90
2017-10-19T07:01:21.354Z,90
2017-10-19T07:02:30.792Z,95
2017-10-19T07:03:42.050Z,100
2017-10-19T07:04:51.046Z,95
2017-10-19T07:06:00.020Z,100
2017-10-19T07:07:11.696Z,90
2017-10-19T07:08:22.048Z,85
2017-10-19T07:09:31.728Z,85
2017-10-19T07:10:42.076Z,95
2017-10-19T07:11:52.521Z,95
2017-10-19T07:13:02.968Z,100
2017-10-19T07:14:12.353Z,100
2017-10-19T07:15:21.355Z,100
2017-10-19T07:16:31.011Z,105
2017-10-19T07:17:40.305Z,110
2017-10-19T07:18:49.297Z,110
2017-10-19T07:20:00.244Z,110
2017-10-19T07:21:10.630Z,115
2017-10-19T07:22:19.601Z,115
2017-10-19T07:23:29.867Z,115
2017-10-19T07:24:40.303Z,110
2017-10-19T07:25:49.303Z,115
2017-10-19T07:26:59.664Z,115
2017-10-19T07:28:09.322Z,125
2017-10-19T07:29:18.346Z,120
2017-10-19T07:30:28.661Z,120
2017-10-19T07:31:39.297Z,125
2017-10-19T07:32:52.383Z,135
2017-10-19T07:34:04.078Z,135
2017-10-19T07:35:13.119Z,140
2017-10-19T07:36:22.192Z,135
2017-10-19T07:37:32.897Z,145
2017-10-19T07:38:44.815Z,150
2017-10-19T07:39:53.860Z,140
2017-10-19T07:41:04.283Z,140
2017-10-19T07:42:15.898Z,140
2017-10-19T07:43:27.617Z,145
2017-10-19T07:44:37.991Z,145
2017-10-19T07:45:49.707Z,145
2017-10-19T07:47:00.120Z,155
2017-10-19T07:48:10.619Z,160
2017-10-19T07:49:19.929Z,160
2017-10-19T07:50:30.361Z,165
2017-10-19T07:51:42.056Z,165
2017-10-19T07:52:52.476Z,160
2017-10-19T07:54:01.496Z,155
2017-10-19T07:55:11.919Z,150
2017-10-19T07:56:23.632Z,160
2017-10-19T07:57:32.657Z,170
2017-10-19T07:58:41.665Z,165
2017-10-19T07:59:52.227Z,160
2017-10-19T08:01:04.122Z,160
2017-10-19T08:02:15.056Z,170
2017-10-19T08:03:24.572Z,165
2017-10-19T08:04:35.483Z,170
2017-10-19T08:05:46.058Z,170
2017-10-19T08:06:56.626Z,175
2017-10-19T08:08:07.198Z,170
2017-10-19T08:09:17.754Z,165
2017-10-19T08:10:28.326Z,155
2017-10-19T08:11:38.878Z,160
2017-10-19T08:12:51.105Z,150
2017-10-19T08:14:02.994Z,150
2017-10-19T08:15:13.578Z,150
2017-10-19T08:16:24.146Z,150
2017-10-19T08:17:35.105Z,155
2017-10-19T08:18:46.995Z,155
2017-10-19T08:19:56.243Z,160
2017-10-19T08:21:07.631Z,165
2017-10-19T08:22:18.268Z,180
2017-10-19T08:23:28.834Z,180
2017-10-19T08:24:38.042Z,175
2017-10-19T08:25:48.581Z,180
2017-10-19T08:27:00.427Z,190
2017-10-19T08:28:11.005Z,190
2017-10-19T08:29:22.929Z,185
2017-10-19T08:30:33.839Z,185
2017-10-19T08:31:44.460Z,180
2017-10-19T08:32:56.853Z,185
2017-10-19T08:34:09.157Z,185
2017-10-19T08:35:19.130Z,180
2017-10-19T08:36:29.749Z,185
2017-10-19T08:37:40.339Z,180
2017-10-19T08:38:52.606Z,190
2017-10-19T08:40:03.261Z,185
2017-10-19T08:41:13.862Z,165
2017-10-19T08:42:24.535Z,170
2017-10-19T08:43:35.490Z,185
2017-10-19T08:44:48.736Z,195
2017-10-19T08:45:59.343Z,195
2017-10-19T08:47:11.578Z,200
2017-10-19T08:48:22.150Z,205
2017-10-19T08:49:34.046Z,220
2017-10-19T08:50:44.864Z,230
2017-10-19T08:52:26.265Z,225
2017-10-19T08:53:37.056Z,235
2017-10-19T08:54:46.335Z,230
2017-10-19T08:55:57.356Z,220
2017-10-19T08:57:07.937Z,215
2017-10-19T08:58:18.919Z,200
2017-10-19T08:59:29.635Z,230
2017-10-19T09:00:40.585Z,245
2017-10-19T09:01:52.492Z,250
2017-10-19T09:03:03.211Z,255
2017-10-19T09:04:15.101Z,250
2017-10-19T09:05:27.036Z,245
2017-10-19T09:06:37.614Z,260
2017-10-19T09:07:46.819Z,265
2017-10-19T09:08:57.790Z,275
2017-10-19T09:10:09.708Z,290
2017-10-19T09:11:21.931Z,310
2017-10-19T09:12:32.497Z,330
2017-10-19T09:13:43.155Z,260
2017-10-19T09:14:52.752Z,235
2017-10-19T09:16:06.522Z,280
2017-10-19T09:17:17.360Z,280
2017-10-19T09:18:28.796Z,340
2017-10-19T09:19:39.797Z,340
2017-10-19T09:20:50.428Z,310
2017-10-19T09:22:00.040Z,310
2017-10-19T09:23:11.009Z,305
2017-10-19T09:24:20.291Z,315
2017-10-19T09:25:30.978Z,320
2017-10-19T09:26:41.601Z,320
2017-10-19T09:27:52.831Z,315
2017-10-19T09:29:04.797Z,285
2017-10-19T09:30:17.389Z,205
2017-10-19T09:31:28.016Z,250
2017-10-19T09:32:38.694Z,300
2017-10-19T09:33:49.723Z,305
2017-10-19T09:35:00.698Z,320
2017-10-19T09:36:11.307Z,310
2017-10-19T09:37:20.911Z,325
2017-10-19T09:38:31.500Z,325
2017-10-19T09:39:42.135Z,320
2017-10-19T09:40:52.739Z,325
2017-10-19T09:42:05.500Z,355
2017-10-19T09:43:14.740Z,345
2017-10-19T09:44:24.345Z,330
2017-10-19T09:45:35.320Z,330
2017-10-19T09:46:47.606Z,355
2017-10-19T09:47:58.278Z,365
2017-10-19T09:49:08.920Z,355
2017-10-19T09:50:20.205Z,365
2017-10-19T09:51:32.343Z,390
2017-10-19T09:52:42.977Z,430
2017-10-19T09:53:53.761Z,415
2017-10-19T09:55:05.684Z,425
2017-10-19T09:56:15.410Z,405
2017-10-19T09:57:25.130Z,370
2017-10-19T09:58:34.867Z,400
2017-10-19T09:59:44.804Z,410
2017-10-19T10:00:55.446Z,410
2017-10-19T10:02:06.067Z,435
2017-10-19T10:03:16.704Z,450
2017-10-19T10:04:26.377Z,420
2017-10-19T10:05:36.946Z,425
2017-10-19T10:06:48.189Z,415
2017-10-19T10:07:58.847Z,410
2017-10-19T10:09:09.854Z,410
2017-10-19T10:10:20.523Z,435
2017-10-19T10:11:29.731Z,460
2017-10-19T10:12:39.494Z,435
2017-10-19T10:13:50.097Z,430
2017-10-19T10:15:00.704Z,475
2017-10-19T10:16:12.652Z,455
2017-10-19T10:17:23.695Z,435
2017-10-19T10:18:34.590Z,410
2017-10-19T10:19:44.290Z,410
2017-10-19T10:20:56.199Z,425
2017-10-19T10:22:05.444Z,415
2017-10-19T10:23:16.295Z,430
2017-10-19T10:24:25.617Z,425
2017-10-19T10:25:36.597Z,480
2017-10-19T10:26:47.548Z,500
2017-10-19T10:27:58.143Z,550
2017-10-19T10:29:07.497Z,620
2017-10-19T10:30:18.105Z,620
2017-10-19T10:31:28.739Z,695
2017-10-19T10:32:40.650Z,680
2017-10-19T10:33:51.366Z,625
2017-10-19T10:35:00.594Z,635
2017-10-19T10:36:10.170Z,650
2017-10-19T10:37:20.786Z,665
2017-10-19T10:38:32.681Z,660
2017-10-19T10:39:42.222Z,625
2017-10-19T10:40:51.391Z,620
2017-10-19T10:42:01.088Z,555
2017-10-19T10:43:12.966Z,550
2017-10-19T10:44:23.512Z,610
2017-10-19T10:45:37.005Z,630
2017-10-19T10:46:47.932Z,630
2017-10-19T10:47:59.890Z,670
2017-10-19T10:49:11.761Z,705
2017-10-19T10:50:22.458Z,770
2017-10-19T10:51:33.397Z,695
2017-10-19T10:52:46.889Z,660
2017-10-19T10:53:56.120Z,535
2017-10-19T10:55:06.730Z,435
2017-10-19T10:56:17.364Z,475
2017-10-19T10:57:28.012Z,530
2017-10-19T10:58:37.244Z,490
2017-10-19T10:59:47.818Z,535
2017-10-19T11:00:58.772Z,440
2017-10-19T11:02:09.410Z,500
2017-10-19T11:03:20.057Z,570
2017-10-19T11:04:30.685Z,625
2017-10-19T11:05:42.043Z,595
2017-10-19T11:06:51.264Z,575
2017-10-19T11:08:03.126Z,495
2017-10-19T11:09:13.728Z,480
2017-10-19T11:10:24.663Z,430
2017-10-19T11:11:35.797Z,400
2017-10-19T11:12:46.416Z,430
2017-10-19T11:13:58.238Z,425
2017-10-19T11:15:07.454Z,335
2017-10-19T11:16:16.993Z,370
2017-10-19T11:17:26.211Z,395
2017-10-19T11:18:39.791Z,415
2017-10-19T11:19:50.409Z,395
2017-10-19T11:21:01.037Z,435
2017-10-19T11:22:11.650Z,415
2017-10-19T11:23:23.595Z,460
2017-10-19T11:24:34.415Z,470
2017-10-19T11:25:43.736Z,460
2017-10-19T11:26:53.767Z,470
2017-10-19T11:28:04.372Z,365
2017-10-19T11:29:15.077Z,325
2017-10-19T11:30:25.970Z,330
2017-10-19T11:31:36.600Z,420
2017-10-19T11:32:48.529Z,515
2017-10-19T11:33:59.112Z,545
2017-10-19T11:35:08.336Z,545
2017-10-19T11:36:17.552Z,705
2017-10-19T11:37:29.441Z,550
2017-10-19T11:38:38.711Z,630
2017-10-19T11:39:50.559Z,785
2017-10-19T11:41:01.197Z,965
2017-10-19T11:42:10.909Z,1095
2017-10-19T11:43:22.109Z,965
2017-10-19T11:44:34.358Z,1340
2017-10-19T11:45:43.531Z,995
2017-10-19T11:46:54.118Z,970
2017-10-19T11:48:03.700Z,875
2017-10-19T11:49:14.337Z,815
2017-10-19T11:50:24.939Z,1245
2017-10-19T11:51:34.247Z,1280
2017-10-19T11:52:44.871Z,850
2017-10-19T11:53:55.483Z,825
2017-10-19T11:55:06.229Z,900
2017-10-19T11:56:17.199Z,1635
2017-10-19T11:57:27.767Z,1765
2017-10-19T11:58:39.866Z,1760
2017-10-19T11:59:50.506Z,1825
2017-10-19T12:01:01.618Z,1725
2017-10-19T12:02:11.159Z,1705
2017-10-19T12:03:20.692Z,1610
2017-10-19T12:04:31.320Z,1375
2017-10-19T12:05:42.628Z,1545
2017-10-19T12:06:53.229Z,835
2017-10-19T12:08:05.241Z,975
2017-10-19T12:09:15.859Z,950
2017-10-19T12:10:26.504Z,1415
2017-10-19T12:11:38.470Z,1390
2017-10-19T12:12:48.031Z,605
2017-10-19T12:13:57.392Z,500
2017-10-19T12:15:07.919Z,480
2017-10-19T12:16:22.541Z,555
2017-10-19T12:17:33.286Z,585
2017-10-19T12:18:43.975Z,685
2017-10-19T12:19:54.601Z,785
2017-10-19T12:21:05.566Z,765
2017-10-19T12:22:16.189Z,1280
2017-10-19T12:23:27.227Z,1340
2017-10-19T12:24:37.863Z,1215
2017-10-19T12:25:48.779Z,1145
2017-10-19T12:27:00.855Z,1175
2017-10-19T12:28:12.522Z,1375
2017-10-19T12:29:23.423Z,1370
2017-10-19T12:30:34.094Z,1405
2017-10-19T12:31:46.012Z,1350
2017-10-19T12:32:55.649Z,780
2017-10-19T12:34:06.267Z,1055
2017-10-19T12:35:17.329Z,1290
2017-10-19T12:36:26.920Z,1195
2017-10-19T12:37:36.148Z,1315
2017-10-19T12:38:47.125Z,1540
2017-10-19T12:39:57.846Z,1400
2017-10-19T12:41:07.781Z,1340
2017-10-19T12:42:17.039Z,1370
2017-10-19T12:43:27.668Z,1360
2017-10-19T12:44:39.990Z,1365
2017-10-19T12:45:50.643Z,1390
2017-10-19T12:46:59.916Z,1370
2017-10-19T12:48:10.552Z,1460
2017-10-19T12:49:21.146Z,1465
2017-10-19T12:50:32.073Z,1380
2017-10-19T12:51:42.705Z,1430
2017-10-19T12:52:53.327Z,1490
2017-10-19T12:54:05.720Z,1400
2017-10-19T12:55:14.954Z,1335
2017-10-19T12:56:27.415Z,1335
2017-10-19T12:57:38.371Z,1335
2017-10-19T12:58:49.448Z,1420
2017-10-19T13:00:00.078Z,1375
2017-10-19T13:01:12.346Z,1320
2017-10-19T13:02:22.902Z,1285
2017-10-19T13:03:34.864Z,1265
2017-10-19T13:04:44.063Z,1300
2017-10-19T13:05:54.131Z,1285
2017-10-19T13:07:03.359Z,1310
2017-10-19T13:08:13.984Z,1315
2017-10-19T13:09:23.226Z,1265
2017-10-19T13:10:33.870Z,1230
2017-10-19T13:11:44.901Z,1320
2017-10-19T13:12:55.891Z,1335
2017-10-19T13:14:06.521Z,1315
2017-10-19T13:15:17.174Z,1235
2017-10-19T13:16:28.123Z,1230
2017-10-19T13:17:39.073Z,1180
2017-10-19T13:18:51.052Z,395
2017-10-19T13:20:01.917Z,1270
2017-10-19T13:21:12.848Z,1000
2017-10-19T13:22:23.477Z,1135
2017-10-19T13:23:35.358Z,1160
2017-10-19T13:24:45.011Z,1150
2017-10-19T13:25:56.941Z,685
2017-10-19T13:27:07.655Z,1155
2017-10-19T13:28:16.884Z,365
2017-10-19T13:29:28.535Z,1165
2017-10-19T13:30:39.229Z,1170
2017-10-19T13:31:49.984Z,1145
2017-10-19T13:33:00.972Z,1130
2017-10-19T13:34:13.275Z,1170
2017-10-19T13:35:23.990Z,535
2017-10-19T13:36:35.000Z,845
2017-10-19T13:37:44.587Z,1040
2017-10-19T13:38:55.608Z,1015
2017-10-19T13:40:06.241Z,1025
2017-10-19T13:41:18.223Z,1025
2017-10-19T13:42:27.584Z,1015
2017-10-19T13:43:39.857Z,1005
2017-10-19T13:44:53.117Z,995
2017-10-19T13:46:03.800Z,990
2017-10-19T13:47:13.508Z,990
2017-10-19T13:48:24.165Z,1000
2017-10-19T13:49:35.166Z,995
2017-10-19T13:50:46.382Z,605
2017-10-19T13:51:58.358Z,840
2017-10-19T13:53:07.975Z,845
2017-10-19T13:54:18.657Z,910
2017-10-19T13:55:29.435Z,905
2017-10-19T13:56:40.600Z,860
2017-10-19T13:57:51.574Z,835
2017-10-19T13:59:02.141Z,870
2017-10-19T14:00:11.741Z,875
2017-10-19T14:01:22.457Z,845
2017-10-19T14:02:33.097Z,840
2017-10-19T14:03:45.042Z,825
2017-10-19T14:04:55.674Z,815
2017-10-19T14:06:06.551Z,800
2017-10-19T14:07:17.172Z,790
2017-10-19T14:08:29.116Z,820
2017-10-19T14:09:39.760Z,815
2017-10-19T14:10:50.710Z,790
2017-10-19T14:12:01.678Z,790
2017-10-19T14:13:13.637Z,770
2017-10-19T14:14:24.367Z,740
2017-10-19T14:15:35.339Z,700
2017-10-19T14:16:46.334Z,770
2017-10-19T14:17:57.295Z,760
2017-10-19T14:19:08.317Z,710
2017-10-19T14:20:19.323Z,690
2017-10-19T14:21:30.284Z,680
2017-10-19T14:22:42.262Z,665
2017-10-19T14:23:53.197Z,670
2017-10-19T14:25:03.860Z,675
2017-10-19T14:26:15.204Z,620
2017-10-19T14:27:25.969Z,575
2017-10-19T14:28:38.623Z,550
2017-10-19T14:29:49.626Z,590
2017-10-19T14:30:58.853Z,535
2017-10-19T14:32:10.812Z,345
2017-10-19T14:33:21.477Z,580
2017-10-19T14:34:32.173Z,575
2017-10-19T14:35:41.432Z,540
2017-10-19T14:36:52.713Z,525
2017-10-19T14:38:03.346Z,530
2017-10-19T14:39:14.059Z,530
2017-10-19T14:40:25.048Z,505
2017-10-19T14:41:36.075Z,480
2017-10-19T14:42:47.088Z,475
2017-10-19T14:43:58.071Z,485
2017-10-19T14:45:10.044Z,480
2017-10-19T14:46:20.730Z,485
2017-10-19T14:47:31.822Z,485
2017-10-19T14:48:42.505Z,460
2017-10-19T14:49:53.458Z,445
2017-10-19T14:51:04.184Z,425
2017-10-19T14:52:16.335Z,400
2017-10-19T14:53:27.328Z,395
2017-10-19T14:54:39.290Z,340
2017-10-19T14:55:48.620Z,335
2017-10-19T14:56:59.313Z,330
2017-10-19T14:58:08.898Z,295
2017-10-19T14:59:19.905Z,250
2017-10-19T15:00:33.175Z,205
2017-10-19T15:01:43.883Z,180
2017-10-19T15:02:54.610Z,170
2017-10-19T15:04:03.941Z,150
2017-10-19T15:05:13.224Z,140
2017-10-19T15:06:23.927Z,125
2017-10-19T15:07:36.500Z,130
2017-10-19T15:08:48.522Z,135
2017-10-19T15:09:57.829Z,135
2017-10-19T15:11:09.808Z,130
2017-10-19T15:12:20.881Z,130
2017-10-19T15:13:31.601Z,135
2017-10-19T15:14:42.621Z,125
2017-10-19T15:15:53.350Z,125
2017-10-19T15:17:03.199Z,120
2017-10-19T15:18:15.227Z,115
2017-10-19T15:19:27.251Z,115
2017-10-19T15:20:37.919Z,115
2017-10-19T15:21:48.513Z,110
2017-10-19T15:22:59.170Z,110
2017-10-19T15:24:08.815Z,100
2017-10-19T15:25:51.632Z,85
2017-10-19T15:27:03.631Z,80
2017-10-19T15:28:15.945Z,75
2017-10-19T15:29:26.661Z,70
2017-10-19T15:30:37.561Z,65
2017-10-19T15:31:47.244Z,65
2017-10-19T15:32:58.195Z,65
2017-10-19T15:34:11.763Z,65
2017-10-19T15:35:22.847Z,60
2017-10-19T15:36:33.511Z,55
2017-10-19T15:37:44.196Z,50
2017-10-19T15:38:55.119Z,50
2017-10-19T15:40:05.853Z,45
2017-10-19T15:41:15.421Z,45
2017-10-19T15:42:25.087Z,40
2017-10-19T15:43:37.127Z,40
2017-10-19T15:44:47.927Z,40
2017-10-19T15:45:57.945Z,35
2017-10-19T15:47:08.575Z,35
2017-10-19T15:48:22.007Z,30
2017-10-19T15:49:31.762Z,30
2017-10-19T15:50:42.510Z,30
2017-10-19T15:51:51.845Z,25
2017-10-19T15:53:01.492Z,25
2017-10-19T15:54:13.482Z,25
2017-10-19T15:55:24.551Z,20
2017-10-19T15:56:35.911Z,20
2017-10-19T15:57:47.992Z,20
2017-10-19T15:58:59.052Z,20
2017-10-19T16:00:09.812Z,15
2017-10-19T16:01:21.837Z,15
2017-10-19T16:02:32.538Z,15
2017-10-19T16:03:43.332Z,15
2017-10-19T16:04:54.058Z,10
2017-10-19T16:06:04.845Z,10
2017-10-19T16:07:17.216Z,10
2017-10-19T16:08:29.184Z,10
2017-10-19T16:09:41.221Z,5
2017-10-19T16:10:52.103Z,5
2017-10-19T16:12:01.732Z,5
2017-10-19T16:13:13.755Z,5
2017-10-19T16:14:24.515Z,5
2017-10-19T16:15:35.475Z,5
2017-10-19T16:16:44.892Z,0
2017-10-19T16:17:55.908Z,0
2017-10-19T16:19:06.731Z,0
2017-10-19T16:20:18.235Z,0
2017-10-19T16:21:31.608Z,0
2017-10-19T16:22:42.350Z,0
2017-10-19T16:23:54.450Z,0
2017-10-19T16:25:06.602Z,0
2017-10-19T16:26:26.966Z,0
2017-10-19T16:27:43.760Z,0
2017-10-19T16:29:00.587Z,0
2017-10-19T16:30:15.284Z,0
2017-10-19T16:31:33.200Z,0
2017-10-19T16:32:48.491Z,0
2017-10-19T16:34:04.943Z,0
2017-10-19T16:35:22.178Z,0
2017-10-19T16:36:37.837Z,0
2017-10-19T16:37:54.806Z,0
2017-10-19T16:39:12.764Z,0
2017-10-19T16:40:28.690Z,0
2017-10-19T16:41:46.853Z,0